Time;durP1;ratioP1;P1;durP2;ratioP2;P2;SDS_P1;SDS_P2;PMS_P1;PMS_P2;Temp;Humidity;BMP_temperature;BMP_pressure;BME280_temperature;BME280_humidity;BME280_pressure;Samples;Min_cycle;Max_cycle;Signal;HPM_P1;HPM_P2
2021/12/07 00:02:07;;;;;;;;;1.25;1.25;;;;;8.52;64.94;100802.00;5060147;28;45220;-50
2021/12/07 00:04:33;;;;;;;;;3.50;1.50;;;;;8.48;65.34;100807.25;5059757;28;45154;-53
2021/12/07 00:06:59;;;;;;;;;6.25;4.00;;;;;8.48;65.02;100821.22;5041982;28;48131;-51
2021/12/07 00:09:25;;;;;;;;;4.75;3.50;;;;;8.45;65.08;100829.94;5060029;28;45248;-50
2021/12/07 00:11:50;;;;;;;;;5.00;2.75;;;;;8.48;65.43;100828.19;5058836;28;45323;-51
2021/12/07 00:14:23;;;;;;;;;6.50;3.50;;;;;8.48;65.36;100825.56;5059717;28;45580;-51
2021/12/07 00:16:50;;;;;;;;;5.00;3.00;;;;;8.47;65.04;100827.34;5059949;28;46300;-47
2021/12/07 00:19:15;;;;;;;;;6.25;3.00;;;;;8.46;65.17;100830.81;5059787;28;45315;-50
2021/12/07 00:21:43;;;;;;;;;2.75;1.75;;;;;8.45;65.15;100827.31;5059897;28;45457;-52
2021/12/07 00:24:10;;;;;;;;;1.50;1.00;;;;;8.45;65.17;100824.69;5058379;28;45452;-48
2021/12/07 00:26:39;;;;;;;;;3.50;2.50;;;;;8.42;64.86;100819.47;5059802;28;45344;-49
2021/12/07 00:29:07;;;;;;;;;7.25;3.00;;;;;8.45;64.96;100818.56;5059493;28;45415;-49
2021/12/07 00:31:42;;;;;;;;;6.00;3.25;;;;;8.42;65.17;100813.38;5075414;28;45395;-50
2021/12/07 00:36:37;;;;;;;;;2.00;0.75;;;;;8.41;65.31;100824.72;5059733;28;45264;-51
2021/12/07 00:39:08;;;;;;;;;2.00;2.00;;;;;8.42;64.97;100829.06;5059584;28;45258;-53
2021/12/07 00:41:34;;;;;;;;;2.00;2.00;;;;;8.41;65.07;100833.41;5059805;28;45192;-50
2021/12/07 00:44:02;;;;;;;;;2.00;1.75;;;;;8.40;65.09;100836.06;5059402;28;45291;-47
2021/12/07 00:46:27;;;;;;;;;0.00;0.00;;;;;8.39;65.05;100829.06;5059246;28;46064;-52
2021/12/07 00:48:53;;;;;;;;;3.50;3.00;;;;;8.39;64.83;100835.19;5059568;28;45295;-49
2021/12/07 00:51:18;;;;;;;;;5.25;2.50;;;;;8.41;64.88;100838.66;5059615;28;45626;-49
2021/12/07 00:53:44;;;;;;;;;2.00;1.75;;;;;8.40;64.76;100838.66;5059512;28;45334;-48
2021/12/07 00:56:10;;;;;;;;;3.00;1.00;;;;;8.40;64.99;100841.28;5059295;28;46090;-50
2021/12/07 00:58:36;;;;;;;;;2.00;1.00;;;;;8.37;64.87;100829.09;5059386;28;45369;-50
2021/12/07 01:01:11;;;;;;;;;4.75;1.00;;;;;8.34;64.80;100830.84;5059054;28;45450;-48
2021/12/07 01:03:38;;;;;;;;;3.25;2.00;;;;;8.35;64.95;100829.97;5059309;28;45479;-50
2021/12/07 01:09:09;;;;;;;;;8.25;1.75;;;;;8.24;64.85;100828.25;5062910;28;45165;-48
2021/12/07 01:25:27;;;;;;;;;0.50;0.00;;;;;8.32;64.81;100843.94;5062494;28;45867;-51
2021/12/07 01:27:56;;;;;;;;;0.75;0.75;;;;;8.32;64.62;100851.78;5062721;28;45284;-48
2021/12/07 01:30:35;;;;;;;;;1.00;0.75;;;;;8.35;64.66;100849.19;5062171;28;45207;-52
2021/12/07 01:46:02;;;;;;;;;1.00;1.00;;;;;8.28;64.45;100845.69;5062205;28;45232;-47
2021/12/07 01:59:37;;;;;;;;;0.50;0.25;;;;;8.33;64.48;100876.22;5061607;28;45857;-53
2021/12/07 02:02:11;;;;;;;;;0.00;0.00;;;;;8.32;64.28;100862.28;5061892;28;45201;-46
2021/12/07 02:04:38;;;;;;;;;1.75;1.00;;;;;8.30;64.41;100870.13;5060892;28;45258;-51
2021/12/07 02:07:05;;;;;;;;;2.50;1.00;;;;;8.29;64.48;100873.63;5062075;28;45528;-52
2021/12/07 02:09:34;;;;;;;;;0.75;0.75;;;;;8.28;64.53;100863.16;5061836;28;45343;-51
2021/12/07 02:12:01;;;;;;;;;1.75;1.00;;;;;8.26;64.28;100862.28;5061828;28;45324;-51
2021/12/07 02:14:27;;;;;;;;;2.75;1.25;;;;;8.21;64.24;100862.28;5061689;28;45232;-50
2021/12/07 02:16:56;;;;;;;;;2.00;2.00;;;;;8.20;64.31;100870.16;5060828;28;45453;-49
2021/12/07 02:19:23;;;;;;;;;3.00;2.25;;;;;8.17;64.34;100865.78;5061539;28;45383;-51
2021/12/07 02:21:48;;;;;;;;;2.50;1.00;;;;;8.18;64.29;100872.78;5061887;28;45314;-47
2021/12/07 02:24:14;;;;;;;;;1.25;1.25;;;;;8.16;64.51;100876.28;5077214;28;45221;-48
2021/12/07 02:26:39;;;;;;;;;1.50;1.00;;;;;8.11;64.28;100874.56;5061966;28;45166;-49
2021/12/07 02:29:05;;;;;;;;;2.00;2.00;;;;;8.10;64.15;100875.41;5061212;28;46231;-47
2021/12/07 02:31:32;;;;;;;;;5.00;2.00;;;;;8.05;64.61;100871.94;5061720;28;45232;-50
2021/12/07 02:33:58;;;;;;;;;2.00;2.00;;;;;8.06;64.49;100865.84;5061493;28;45259;-51
2021/12/07 02:36:24;;;;;;;;;2.00;2.00;;;;;8.04;64.38;100878.03;5061691;28;45228;-50
2021/12/07 02:38:50;;;;;;;;;3.00;2.00;;;;;8.04;64.26;100879.81;5061177;28;46273;-47
2021/12/07 02:41:16;;;;;;;;;4.00;3.25;;;;;8.00;64.43;100884.16;5061547;28;45311;-47
2021/12/07 02:43:42;;;;;;;;;4.00;1.00;;;;;7.92;64.54;100878.94;5061201;28;45439;-48
2021/12/07 02:46:07;;;;;;;;;4.00;1.75;;;;;7.90;64.40;100890.25;5061268;28;45475;-47
2021/12/07 02:48:33;;;;;;;;;2.00;2.00;;;;;7.89;64.66;100886.78;5061112;28;46100;-49
2021/12/07 02:50:59;;;;;;;;;4.25;2.00;;;;;7.84;64.45;100871.97;5061315;28;45260;-47
2021/12/07 02:53:27;;;;;;;;;4.75;2.00;;;;;7.83;64.49;100885.94;5061294;28;45153;-47
2021/12/07 02:55:54;;;;;;;;;1.25;1.25;;;;;7.80;64.69;100892.03;5061013;28;45254;-47
2021/12/07 02:58:20;;;;;;;;;2.00;2.00;;;;;7.75;64.42;100889.41;5061039;28;46393;-52
2021/12/07 03:00:55;;;;;;;;;3.00;2.00;;;;;7.73;64.59;100885.91;5061009;28;45275;-51
2021/12/07 03:03:21;;;;;;;;;5.00;3.50;;;;;7.69;64.57;100886.78;5048114;28;45306;-49
2021/12/07 03:27:14;;;;;;;;;1.50;1.50;;;;;7.53;64.37;100892.88;5060584;28;45264;-49
2021/12/07 03:29:40;;;;;;;;;4.00;3.00;;;;;7.52;64.47;100901.59;5059304;28;46958;-49
2021/12/07 03:32:05;;;;;;;;;3.50;3.00;;;;;7.52;64.52;100906.81;5059448;28;45391;-48
2021/12/07 03:34:31;;;;;;;;;3.00;1.00;;;;;7.50;64.49;100906.84;5061065;28;45384;-49
2021/12/07 03:36:56;;;;;;;;;1.00;1.00;;;;;7.42;64.24;100906.81;5060602;28;45449;-51
2021/12/07 03:39:22;;;;;;;;;6.50;2.50;;;;;7.41;64.68;100917.25;5060614;28;45426;-49
2021/12/07 03:41:47;;;;;;;;;3.00;3.00;;;;;7.40;64.42;100920.78;5058943;28;45342;-48
2021/12/07 03:44:12;;;;;;;;;2.00;2.00;;;;;7.36;64.84;100917.28;5059700;28;45318;-48
2021/12/07 03:46:38;;;;;;;;;3.00;3.00;;;;;7.34;64.59;100913.78;5056797;28;45573;-49
2021/12/07 03:49:04;;;;;;;;;2.50;2.00;;;;;7.32;64.38;100911.16;5060454;28;45524;-48
2021/12/07 03:51:29;;;;;;;;;6.50;3.00;;;;;7.30;64.57;100902.44;5060314;28;45394;-48
2021/12/07 03:53:55;;;;;;;;;2.00;1.75;;;;;7.28;64.68;100890.22;5060429;28;45369;-47
2021/12/07 03:56:20;;;;;;;;;2.50;2.50;;;;;7.25;64.72;100904.16;5059038;28;45563;-48
2021/12/07 03:58:45;;;;;;;;;2.25;2.25;;;;;7.21;64.72;100902.44;5058777;28;45400;-47
2021/12/07 04:01:12;;;;;;;;;3.00;3.00;;;;;7.22;64.66;100911.13;5060138;28;45358;-50
2021/12/07 04:03:38;;;;;;;;;1.50;1.50;;;;;7.16;64.82;100905.03;5060272;28;45327;-47
2021/12/07 04:06:06;;;;;;;;;1.00;1.00;;;;;7.15;64.83;100897.19;5060157;28;45293;-48
2021/12/07 04:08:34;;;;;;;;;3.50;2.00;;;;;7.10;64.96;100886.72;5058899;28;46057;-48
2021/12/07 04:11:00;;;;;;;;;3.00;3.00;;;;;7.12;64.92;100884.13;5059763;28;45325;-50
2021/12/07 04:13:27;;;;;;;;;3.25;3.25;;;;;7.10;64.73;100883.22;5060328;28;45221;-50
2021/12/07 04:15:52;;;;;;;;;4.00;1.00;;;;;7.09;64.60;100886.72;5059836;28;45283;-49
2021/12/07 04:18:18;;;;;;;;;1.75;1.75;;;;;7.06;64.80;100884.97;5058570;28;45871;-51
2021/12/07 04:20:44;;;;;;;;;2.25;1.00;;;;;7.06;64.90;100897.16;5059811;28;45379;-50
2021/12/07 04:23:09;;;;;;;;;3.50;1.75;;;;;7.01;65.04;100897.16;5059993;28;45374;-48
2021/12/07 04:25:36;;;;;;;;;4.50;4.50;;;;;6.99;65.03;100901.47;5059639;28;45256;-48
2021/12/07 04:28:03;;;;;;;;;3.75;2.00;;;;;6.97;64.87;100898.00;5059696;28;46158;-50
2021/12/07 04:30:35;;;;;;;;;3.00;2.00;;;;;6.95;65.00;100889.28;5059349;28;45390;-49
2021/12/07 04:33:02;;;;;;;;;6.00;1.50;;;;;6.91;64.86;100885.78;5060033;28;45537;-48
2021/12/07 04:35:28;;;;;;;;;6.75;4.50;;;;;6.87;65.23;100891.88;5059432;28;45463;-50
2021/12/07 04:37:55;;;;;;;;;1.25;1.00;;;;;6.86;65.06;100904.94;5059799;28;46323;-49
2021/12/07 04:40:24;;;;;;;;;4.00;3.00;;;;;6.81;64.85;100892.72;5061836;28;45401;-51
2021/12/07 04:42:50;;;;;;;;;4.75;3.00;;;;;6.79;65.05;100902.31;5045334;28;45308;-48
2021/12/07 04:58:38;;;;;;;;;5.00;2.50;;;;;6.64;65.03;100891.78;5062944;28;45178;-48
2021/12/07 05:01:10;;;;;;;;;3.25;2.00;;;;;6.65;64.84;100894.41;5063108;28;45473;-47
2021/12/07 05:03:37;;;;;;;;;5.00;4.25;;;;;6.64;64.97;100889.16;5063168;28;45350;-52
2021/12/07 05:06:04;;;;;;;;;15.25;12.25;;;;;6.64;64.98;100891.78;5062912;28;45237;-48
2021/12/07 05:09:19;;;;;;;;;9.50;7.25;;;;;6.62;64.90;100894.38;5063133;28;45635;-48
2021/12/07 05:16:41;;;;;;;;;5.50;3.75;;;;;6.61;65.02;100897.00;5062718;28;45351;-50
2021/12/07 05:24:48;;;;;;;;;7.25;3.75;;;;;6.57;65.00;100896.09;5061865;28;45265;-51
2021/12/07 05:37:58;;;;;;;;;5.00;4.50;;;;;6.55;65.13;100894.34;5062503;28;45390;-49
2021/12/07 05:40:30;;;;;;;;;5.50;4.00;;;;;6.56;65.11;100898.72;5062175;28;47041;-47
2021/12/07 05:42:56;;;;;;;;;5.25;4.75;;;;;6.56;64.92;100902.19;5062508;28;45308;-47
2021/12/07 05:45:27;;;;;;;;;10.50;7.75;;;;;6.52;65.03;100895.22;5062331;28;45518;-48
2021/12/07 05:47:53;;;;;;;;;3.25;3.25;;;;;6.53;65.05;100907.41;5062401;28;45233;-48
2021/12/07 05:50:23;;;;;;;;;4.75;4.75;;;;;6.49;65.11;100901.28;5061553;28;45411;-50
2021/12/07 05:52:49;;;;;;;;;10.50;6.50;;;;;6.47;65.06;100891.72;5061881;28;45229;-52
2021/12/07 05:55:15;;;;;;;;;12.00;5.50;;;;;6.45;65.14;100891.72;5062532;28;45308;-52
2021/12/07 05:57:40;;;;;;;;;5.50;5.50;;;;;6.43;65.20;100895.19;5062465;28;45237;-48
2021/12/07 06:00:10;;;;;;;;;6.75;4.25;;;;;6.41;65.20;100895.13;5061990;28;46311;-48
2021/12/07 06:02:36;;;;;;;;;9.00;6.75;;;;;6.40;65.07;100913.41;5062094;28;45411;-50
2021/12/07 06:05:02;;;;;;;;;8.75;5.25;;;;;6.36;65.30;100909.91;5062537;28;45492;-48
2021/12/07 06:07:27;;;;;;;;;6.50;4.50;;;;;6.33;65.50;100904.69;5060910;28;45454;-50
2021/12/07 06:09:52;;;;;;;;;9.25;4.00;;;;;6.29;65.33;100903.78;5061983;28;45410;-49
2021/12/07 06:12:18;;;;;;;;;7.00;7.00;;;;;6.24;65.29;100907.22;5060812;28;45302;-50
2021/12/07 06:14:44;;;;;;;;;8.50;7.50;;;;;6.26;65.32;100908.97;5062038;28;45322;-49
2021/12/07 06:17:12;;;;;;;;;10.75;6.00;;;;;6.25;65.46;100908.97;5060707;28;45473;-50
2021/12/07 06:19:38;;;;;;;;;10.00;7.50;;;;;6.25;65.35;100908.97;5061812;28;46073;-48
2021/12/07 06:22:05;;;;;;;;;10.50;7.50;;;;;6.22;65.25;100895.91;5061629;28;45226;-51
2021/12/07 06:24:31;;;;;;;;;6.00;4.75;;;;;6.23;65.20;100876.78;5060930;28;45375;-49
2021/12/07 06:26:56;;;;;;;;;7.50;7.50;;;;;6.23;65.65;100882.00;5061766;28;45459;-50
2021/12/07 06:29:22;;;;;;;;;8.75;8.75;;;;;6.21;65.50;100868.06;5077057;28;48102;-47
2021/12/07 06:31:47;;;;;;;;;9.25;8.75;;;;;6.18;65.74;100867.19;5061743;28;45287;-52
2021/12/07 06:34:12;;;;;;;;;15.00;11.75;;;;;6.19;65.43;100865.47;5062067;28;45363;-47
2021/12/07 06:36:38;;;;;;;;;10.00;10.00;;;;;6.21;65.35;100855.03;5061639;28;45386;-48
2021/12/07 06:39:09;;;;;;;;;14.25;8.00;;;;;6.16;65.29;100858.47;5060208;28;47265;-46
2021/12/07 06:41:35;;;;;;;;;19.75;11.25;;;;;6.13;65.56;100858.44;5061597;28;45330;-48
2021/12/07 06:44:01;;;;;;;;;15.25;10.50;;;;;6.14;65.66;100849.75;5061620;28;45451;-48
2021/12/07 06:46:26;;;;;;;;;15.00;14.00;;;;;6.10;65.75;100850.63;5061238;28;45544;-47
2021/12/07 06:48:52;;;;;;;;;16.00;11.75;;;;;6.11;65.56;100844.53;5060535;28;46389;-47
2021/12/07 06:51:17;;;;;;;;;20.00;14.00;;;;;6.12;65.93;100843.66;5061363;28;45319;-51
2021/12/07 06:53:42;;;;;;;;;13.50;11.25;;;;;6.15;65.76;100855.84;5061695;28;45279;-46
2021/12/07 06:56:09;;;;;;;;;23.50;21.50;;;;;6.13;66.03;100845.41;5061472;28;45424;-48
2021/12/07 06:58:35;;;;;;;;;23.50;19.25;;;;;6.14;65.84;100846.28;5061085;28;46039;-50
2021/12/07 07:01:06;;;;;;;;;16.00;16.00;;;;;6.16;65.73;100840.22;5061109;28;45231;-51
2021/12/07 07:03:32;;;;;;;;;14.00;12.00;;;;;6.10;65.81;100828.84;5060752;28;45345;-51
2021/12/07 07:05:57;;;;;;;;;15.50;14.25;;;;;6.13;66.31;100832.34;5060441;28;45509;-49
2021/12/07 07:08:23;;;;;;;;;20.25;15.75;;;;;6.15;65.96;100825.41;5056023;28;46589;-51
2021/12/07 07:10:48;;;;;;;;;13.25;13.25;;;;;6.14;66.13;100820.19;5059580;28;45508;-49
2021/12/07 07:13:14;;;;;;;;;17.75;13.50;;;;;6.12;66.11;100822.78;5052920;28;45351;-50
2021/12/07 07:15:40;;;;;;;;;16.00;10.50;;;;;6.12;66.28;100814.94;5052493;28;45549;-49
2021/12/07 07:18:05;;;;;;;;;15.75;15.00;;;;;6.11;66.04;100807.13;5060816;28;46014;-48
2021/12/07 07:20:31;;;;;;;;;16.25;12.75;;;;;6.15;65.99;100811.47;5058640;28;45908;-49
2021/12/07 07:22:56;;;;;;;;;21.00;18.25;;;;;6.15;66.23;100811.47;5057284;28;45433;-50
2021/12/07 07:25:22;;;;;;;;;22.50;19.50;;;;;6.11;66.39;100807.13;5058917;28;45774;-49
2021/12/07 07:27:47;;;;;;;;;24.25;20.25;;;;;6.11;66.32;100799.28;5060567;28;46133;-47
2021/12/07 07:30:15;;;;;;;;;22.00;17.25;;;;;6.09;66.38;100794.06;5060477;28;45231;-47
2021/12/07 07:32:41;;;;;;;;;23.25;17.50;;;;;6.10;66.33;100795.81;5059429;28;45315;-52
2021/12/07 07:35:08;;;;;;;;;16.75;16.00;;;;;5.96;66.50;100774.84;5060627;28;45473;-52
2021/12/07 07:37:34;;;;;;;;;21.75;19.25;;;;;6.10;66.52;100781.88;5060212;28;45462;-50
2021/12/07 07:40:00;;;;;;;;;20.50;19.50;;;;;6.11;66.47;100778.41;5060227;28;45252;-47
2021/12/07 07:42:25;;;;;;;;;26.00;22.75;;;;;6.13;66.53;100774.94;5044014;28;45733;-51
2021/12/07 07:44:50;;;;;;;;;22.25;18.00;;;;;6.15;66.20;100769.72;5044334;28;45537;-50
2021/12/07 07:47:16;;;;;;;;;14.25;14.25;;;;;6.17;66.23;100768.88;5057303;28;45480;-50
2021/12/07 07:49:41;;;;;;;;;16.75;16.25;;;;;6.17;66.40;100761.03;5060732;28;46164;-51
2021/12/07 07:52:07;;;;;;;;;24.00;20.75;;;;;6.10;66.34;100743.63;5060621;28;45385;-49
2021/12/07 07:54:32;;;;;;;;;25.50;21.25;;;;;6.14;66.27;100752.34;5059027;28;45422;-47
2021/12/07 07:56:57;;;;;;;;;19.00;14.75;;;;;6.15;66.06;100759.28;5060462;28;45257;-49
2021/12/07 07:59:23;;;;;;;;;23.00;20.00;;;;;6.01;66.54;100746.19;5058956;28;45281;-49
2021/12/07 08:01:48;;;;;;;;;28.75;23.75;;;;;6.09;66.64;100757.53;5060434;28;45145;-50
2021/12/07 08:04:14;;;;;;;;;25.00;22.50;;;;;6.00;66.69;100737.50;5060233;28;45414;-49
2021/12/07 08:06:39;;;;;;;;;26.00;23.50;;;;;6.12;66.52;100747.09;5060271;28;46247;-48
2021/12/07 08:09:05;;;;;;;;;28.75;25.75;;;;;6.15;66.53;100741.03;5059969;28;45398;-51
2021/12/07 08:11:32;;;;;;;;;19.25;16.25;;;;;6.15;66.35;100741.03;5060311;28;45314;-50
2021/12/07 08:13:58;;;;;;;;;28.00;23.25;;;;;6.12;66.47;100728.84;5058848;28;45459;-49
2021/12/07 08:16:24;;;;;;;;;21.00;20.25;;;;;6.16;66.37;100729.72;5052786;28;46275;-48
2021/12/07 08:18:52;;;;;;;;;24.25;18.25;;;;;6.06;66.64;100713.16;5058696;28;45253;-52
2021/12/07 08:21:18;;;;;;;;;17.25;15.00;;;;;6.12;66.41;100723.63;5060207;28;45255;-49
2021/12/07 08:23:44;;;;;;;;;15.25;14.75;;;;;6.10;66.65;100719.25;5058506;28;45367;-48
2021/12/07 08:26:13;;;;;;;;;14.25;12.75;;;;;6.09;66.64;100717.50;5059950;28;45467;-48
2021/12/07 08:28:38;;;;;;;;;14.75;14.75;;;;;6.10;66.65;100720.16;5059644;28;45334;-51
2021/12/07 08:31:04;;;;;;;;;14.00;13.25;;;;;6.11;66.55;100721.00;5060198;28;45325;-48
2021/12/07 08:33:31;;;;;;;;;15.50;13.75;;;;;6.09;66.66;100710.56;5041921;28;46236;-49
2021/12/07 08:35:57;;;;;;;;;17.25;15.00;;;;;6.09;66.62;100694.03;5059832;28;45212;-49
2021/12/07 08:38:22;;;;;;;;;18.75;16.25;;;;;6.07;66.36;100696.63;5059992;28;45224;-53
2021/12/07 08:40:53;;;;;;;;;15.75;14.50;;;;;6.11;66.71;100702.75;5059916;28;45776;-52
2021/12/07 08:43:23;;;;;;;;;15.25;14.50;;;;;6.08;66.57;100690.56;5058444;28;45201;-54
2021/12/07 08:45:50;;;;;;;;;17.75;15.50;;;;;6.10;67.13;100696.66;5059679;28;46399;-48
2021/12/07 08:48:17;;;;;;;;;17.75;13.25;;;;;6.08;66.74;100681.88;5059650;28;45418;-51
2021/12/07 08:50:44;;;;;;;;;16.25;10.50;;;;;6.05;66.92;100680.13;5059909;28;45335;-53
2021/12/07 08:53:12;;;;;;;;;14.00;13.25;;;;;6.05;67.02;100685.34;5059661;28;45173;-49
2021/12/07 09:01:12;;;;;;;;;20.00;14.25;;;;;6.11;66.56;100684.47;5059758;28;45288;-49
2021/12/07 09:03:37;;;;;;;;;21.25;16.50;;;;;6.13;66.68;100687.97;5059324;28;45249;-51
2021/12/07 09:06:04;;;;;;;;;10.75;9.00;;;;;6.08;66.80;100667.09;5059291;28;45474;-50
2021/12/07 09:08:29;;;;;;;;;15.50;13.25;;;;;6.10;66.78;100652.31;5059582;28;45436;-48
2021/12/07 09:10:55;;;;;;;;;15.50;14.00;;;;;6.15;66.90;100647.09;5059254;28;45298;-50
2021/12/07 09:13:23;;;;;;;;;25.00;15.50;;;;;6.10;66.93;100631.44;5074992;28;45488;-52
2021/12/07 09:15:48;;;;;;;;;17.75;15.50;;;;;6.16;67.00;100628.84;5059314;28;47137;-48
2021/12/07 09:18:13;;;;;;;;;17.25;17.25;;;;;6.13;66.93;100623.59;5059556;28;45385;-48
2021/12/07 09:20:39;;;;;;;;;13.25;11.50;;;;;6.13;67.05;100618.38;5059233;28;45298;-51
2021/12/07 09:23:04;;;;;;;;;15.00;15.00;;;;;6.04;67.29;100594.91;5058320;28;45312;-50
2021/12/07 09:25:30;;;;;;;;;24.00;19.50;;;;;6.14;67.14;100601.88;5060155;28;46012;-47
2021/12/07 09:27:57;;;;;;;;;20.25;15.75;;;;;6.14;67.31;100607.09;5062966;28;45395;-51
2021/12/07 09:30:22;;;;;;;;;15.00;13.25;;;;;6.16;67.25;100596.66;5062500;28;45346;-46
2021/12/07 09:32:50;;;;;;;;;16.25;13.25;;;;;6.09;67.34;100585.34;5061380;28;45359;-47
2021/12/07 09:35:16;;;;;;;;;18.75;14.75;;;;;6.06;67.54;100563.59;5075132;28;47291;-51
2021/12/07 09:37:42;;;;;;;;;14.50;12.00;;;;;6.10;67.34;100586.19;5062592;28;45270;-50
2021/12/07 09:40:13;;;;;;;;;16.00;15.00;;;;;6.08;67.34;100580.97;5061313;28;45307;-49
2021/12/07 09:42:39;;;;;;;;;15.25;12.75;;;;;5.98;67.60;100558.31;5061255;28;45454;-48
2021/12/07 09:45:07;;;;;;;;;15.75;13.25;;;;;6.07;67.56;100567.94;5053651;28;46369;-50
2021/12/07 09:47:33;;;;;;;;;12.00;12.00;;;;;6.10;67.39;100567.94;5062467;28;45223;-53
2021/12/07 09:49:58;;;;;;;;;13.50;13.00;;;;;6.11;67.30;100569.69;5062373;28;45240;-47
2021/12/07 09:52:24;;;;;;;;;12.00;10.50;;;;;5.99;67.56;100562.72;5061213;28;45649;-47
2021/12/07 09:54:51;;;;;;;;;14.00;13.00;;;;;6.10;67.37;100579.25;5061071;28;45539;-51
2021/12/07 09:57:16;;;;;;;;;10.25;10.00;;;;;6.12;67.57;100567.06;5044312;28;45673;-49
2021/12/07 09:59:42;;;;;;;;;15.25;13.00;;;;;6.08;67.73;100570.53;5060882;28;45471;-50
2021/12/07 10:02:08;;;;;;;;;9.25;8.25;;;;;6.10;67.96;100555.78;5060908;28;45455;-46
2021/12/07 10:04:34;;;;;;;;;14.00;13.00;;;;;6.11;67.91;100551.41;5062027;28;45639;-51
2021/12/07 10:07:00;;;;;;;;;13.25;10.50;;;;;6.17;67.54;100559.25;5062270;28;45232;-48
2021/12/07 10:09:26;;;;;;;;;9.00;6.50;;;;;6.16;67.76;100570.56;5061941;28;45299;-49
2021/12/07 10:11:53;;;;;;;;;10.50;10.25;;;;;6.17;67.84;100567.09;5062050;28;45376;-49
2021/12/07 10:14:19;;;;;;;;;10.50;9.25;;;;;6.20;67.84;100563.59;5061682;28;46260;-51
2021/12/07 10:16:48;;;;;;;;;15.50;12.25;;;;;6.22;67.82;100557.50;5062020;28;45263;-49
2021/12/07 10:19:26;;;;;;;;;15.25;13.25;;;;;6.24;67.85;100552.28;5062104;28;45330;-50
2021/12/07 10:22:09;;;;;;;;;15.00;14.00;;;;;6.28;67.80;100541.00;5061876;28;45396;-48
2021/12/07 10:24:47;;;;;;;;;14.00;11.75;;;;;6.31;67.92;100525.34;5061550;28;45367;-49
2021/12/07 10:27:13;;;;;;;;;14.75;12.25;;;;;6.36;67.94;100522.72;5061718;28;45166;-48
2021/12/07 10:29:40;;;;;;;;;17.00;13.75;;;;;6.39;67.84;100501.84;5060581;28;45252;-52
2021/12/07 10:32:07;;;;;;;;;12.75;10.75;;;;;6.39;67.89;100497.50;5060338;28;45475;-52
2021/12/07 10:34:40;;;;;;;;;11.75;9.25;;;;;6.46;67.96;100485.31;5060390;28;47339;-52
2021/12/07 10:37:15;;;;;;;;;15.75;13.00;;;;;6.47;67.91;100474.84;5060708;28;45489;-48
2021/12/07 10:39:44;;;;;;;;;10.50;10.50;;;;;6.50;68.04;100477.47;5061711;28;45357;-52
2021/12/07 10:42:21;;;;;;;;;15.50;13.75;;;;;6.48;68.21;100465.28;5060234;28;45400;-51
2021/12/07 10:44:47;;;;;;;;;17.50;15.00;;;;;6.53;68.12;100457.44;5061321;28;46459;-52
2021/12/07 10:47:16;;;;;;;;;17.25;14.75;;;;;6.55;68.27;100447.88;5059942;28;46557;-50
2021/12/07 10:49:46;;;;;;;;;12.25;10.25;;;;;6.54;68.27;100433.06;5061854;28;45446;-50
2021/12/07 10:52:34;;;;;;;;;16.00;12.25;;;;;6.59;68.24;100434.81;5061341;28;45436;-50
2021/12/07 10:55:15;;;;;;;;;16.25;12.25;;;;;6.61;68.31;100426.97;5055170;28;46345;-51
2021/12/07 10:57:51;;;;;;;;;14.50;13.50;;;;;6.65;68.25;100421.75;5060019;28;45231;-49
2021/12/07 11:00:22;;;;;;;;;9.75;9.50;;;;;6.68;68.08;100405.19;5061058;28;45466;-48
2021/12/07 11:02:53;;;;;;;;;14.50;9.75;;;;;6.70;68.54;100390.38;5060978;28;45342;-51
2021/12/07 11:05:31;;;;;;;;;15.25;11.00;;;;;6.72;68.33;100364.25;5061246;28;46175;-52
2021/12/07 11:07:58;;;;;;;;;11.25;10.50;;;;;6.70;68.52;100351.19;5043253;28;46336;-49
2021/12/07 11:10:32;;;;;;;;;13.50;10.25;;;;;6.82;68.37;100360.72;5061052;28;45323;-53
2021/12/07 11:15:49;;;;;;;;;10.50;9.00;;;;;6.90;68.56;100337.19;5061094;28;45539;-47
2021/12/07 11:18:15;;;;;;;;;7.50;7.00;;;;;6.95;68.53;100327.56;5060930;28;45398;-51
2021/12/07 11:20:41;;;;;;;;;10.25;9.50;;;;;6.94;68.27;100303.19;5060850;28;45311;-50
2021/12/07 11:23:14;;;;;;;;;12.25;12.25;;;;;7.05;68.46;100310.09;5060741;28;45439;-47
2021/12/07 11:31:50;;;;;;;;;7.75;7.25;;;;;7.19;68.77;100257.72;5044901;28;45253;-49
2021/12/07 11:34:16;;;;;;;;;9.00;7.00;;;;;7.22;68.48;100255.06;5060642;28;45282;-48
2021/12/07 11:36:50;;;;;;;;;14.00;8.00;;;;;7.26;68.95;100247.22;5060632;28;45422;-47
2021/12/07 11:39:20;;;;;;;;;6.50;6.25;;;;;7.32;68.67;100247.16;5060464;28;45259;-49
2021/12/07 11:41:48;;;;;;;;;7.00;7.00;;;;;7.35;68.77;100227.97;5059508;28;45265;-48
2021/12/07 11:44:14;;;;;;;;;10.50;9.00;;;;;7.37;68.75;100215.75;5060411;28;45530;-49
2021/12/07 11:46:47;;;;;;;;;9.75;5.00;;;;;7.41;68.56;100207.00;5060345;28;46065;-50
2021/12/07 11:49:18;;;;;;;;;9.50;9.00;;;;;7.46;68.68;100213.03;5060774;28;45297;-49
2021/12/07 11:51:46;;;;;;;;;12.25;8.50;;;;;7.51;68.58;100207.78;5059166;28;45355;-52
2021/12/07 11:54:13;;;;;;;;;12.25;11.00;;;;;7.55;68.48;100182.47;5060364;28;45530;-52
2021/12/07 11:56:40;;;;;;;;;7.75;5.00;;;;;7.55;68.60;100187.69;5060245;28;46662;-53
2021/12/07 11:59:07;;;;;;;;;6.25;4.00;;;;;7.56;68.75;100166.75;5058929;28;45744;-52
2021/12/07 12:01:32;;;;;;;;;3.25;2.50;;;;;7.59;68.90;100163.25;5060441;28;45307;-52
2021/12/07 12:04:00;;;;;;;;;10.25;5.25;;;;;7.67;68.41;100150.94;5060071;28;45346;-47
2021/12/07 12:06:25;;;;;;;;;4.00;4.00;;;;;7.65;68.80;100137.88;5060277;28;45270;-53
2021/12/07 12:08:52;;;;;;;;;8.50;7.50;;;;;7.65;68.68;100130.03;5058993;28;45442;-51
2021/12/07 12:11:39;;;;;;;;;4.25;2.75;;;;;7.70;68.68;100129.09;5060351;28;45322;-50
2021/12/07 12:14:36;;;;;;;;;7.00;6.00;;;;;7.74;68.89;100123.81;5058565;28;45439;-53
2021/12/07 12:17:10;;;;;;;;;6.50;4.75;;;;;7.80;68.56;100121.13;5042645;28;46378;-47
2021/12/07 12:19:54;;;;;;;;;6.25;6.25;;;;;7.85;68.70;100104.50;5059806;28;45344;-48
2021/12/07 12:22:33;;;;;;;;;4.00;3.75;;;;;7.86;68.46;100104.50;5060089;28;45382;-50
2021/12/07 12:25:04;;;;;;;;;4.75;4.75;;;;;7.95;68.41;100093.06;5060144;28;45335;-50
2021/12/07 12:27:33;;;;;;;;;6.50;5.25;;;;;7.93;68.42;100076.50;5059853;28;45470;-53
2021/12/07 12:30:15;;;;;;;;;14.00;10.50;;;;;7.99;68.34;100068.56;5059755;28;45521;-51
2021/12/07 12:32:47;;;;;;;;;14.50;11.25;;;;;8.07;68.22;100068.44;5058588;28;45512;-48
2021/12/07 12:35:14;;;;;;;;;5.25;5.00;;;;;8.05;68.12;100063.25;5075540;28;45234;-51
2021/12/07 12:37:46;;;;;;;;;14.25;11.25;;;;;8.07;68.25;100053.59;5059664;28;45374;-50
2021/12/07 12:40:19;;;;;;;;;11.50;5.00;;;;;8.07;68.29;100040.50;5059355;28;45370;-49
2021/12/07 12:42:48;;;;;;;;;8.00;8.00;;;;;8.14;68.48;100038.69;5058760;28;45449;-49
2021/12/07 12:45:25;;;;;;;;;4.00;2.50;;;;;8.14;68.02;100009.91;5059471;28;45232;-47
2021/12/07 12:48:07;;;;;;;;;4.25;4.25;;;;;8.19;68.37;99999.34;5059608;28;46318;-51
2021/12/07 12:50:49;;;;;;;;;11.50;5.75;;;;;8.19;68.36;99975.78;5059685;28;45533;-48
2021/12/07 12:53:27;;;;;;;;;7.50;7.50;;;;;8.22;68.22;99979.22;5059637;28;45169;-49
2021/12/07 12:55:58;;;;;;;;;11.00;8.75;;;;;8.23;68.23;99974.88;5059673;28;45247;-50
2021/12/07 12:58:30;;;;;;;;;5.50;5.50;;;;;8.23;67.98;99930.38;5059153;28;45330;-50
2021/12/07 13:01:05;;;;;;;;;8.50;4.25;;;;;8.28;68.16;99931.16;5061198;28;45503;-51
2021/12/07 13:04:10;;;;;;;;;5.25;5.25;;;;;8.33;68.02;99924.06;5063056;28;45365;-51
2021/12/07 13:06:53;;;;;;;;;5.25;5.00;;;;;8.33;68.04;99916.22;5061261;28;45239;-50
2021/12/07 13:09:18;;;;;;;;;9.25;5.75;;;;;8.36;67.80;99928.38;5061518;28;48058;-49
2021/12/07 13:11:54;;;;;;;;;6.00;4.75;;;;;8.37;67.86;99922.25;5063136;28;45375;-49
2021/12/07 13:14:19;;;;;;;;;10.00;6.00;;;;;8.41;67.57;99916.91;5078585;28;45371;-48
2021/12/07 13:17:14;;;;;;;;;7.50;4.50;;;;;8.41;67.67;99911.69;5063142;28;45473;-52
2021/12/07 13:20:07;;;;;;;;;6.00;3.00;;;;;8.48;67.66;99922.09;5055738;28;47507;-51
2021/12/07 13:22:43;;;;;;;;;8.75;8.50;;;;;8.45;67.54;99889.81;5062555;28;45172;-49
2021/12/07 13:25:14;;;;;;;;;9.75;6.00;;;;;8.50;67.82;99894.97;5062869;28;45237;-48
2021/12/07 13:28:03;;;;;;;;;6.50;4.50;;;;;8.53;67.72;99884.47;5062673;28;45574;-51